sensor_id;sensor_type;location;lat;lon;timestamp;P1;durP1;ratioP1;P2;durP2;ratioP2
47844;SDS011;33605;48.822;8.796;2024-03-02T00:02:12;8.20;;;6.40;;
47844;SDS011;33605;48.822;8.796;2024-03-02T00:04:39;8.07;;;6.50;;
47844;SDS011;33605;48.822;8.796;2024-03-02T00:07:05;10.47;;;6.93;;
47844;SDS011;33605;48.822;8.796;2024-03-02T00:09:32;8.03;;;6.47;;
47844;SDS011;33605;48.822;8.796;2024-03-02T00:11:58;8.00;;;5.77;;
47844;SDS011;33605;48.822;8.796;2024-03-02T00:14:25;7.07;;;6.03;;
47844;SDS011;33605;48.822;8.796;2024-03-02T00:16:51;7.37;;;6.20;;
47844;SDS011;33605;48.822;8.796;2024-03-02T00:19:18;9.70;;;6.03;;
47844;SDS011;33605;48.822;8.796;2024-03-02T00:21:44;8.30;;;6.07;;
47844;SDS011;33605;48.822;8.796;2024-03-02T00:26:55;8.20;;;5.70;;
47844;SDS011;33605;48.822;8.796;2024-03-02T00:29:21;7.17;;;5.17;;
47844;SDS011;33605;48.822;8.796;2024-03-02T00:31:47;8.40;;;5.73;;
47844;SDS011;33605;48.822;8.796;2024-03-02T00:34:13;9.93;;;5.80;;
47844;SDS011;33605;48.822;8.796;2024-03-02T00:36:43;8.30;;;5.50;;
47844;SDS011;33605;48.822;8.796;2024-03-02T00:39:10;9.20;;;6.33;;
47844;SDS011;33605;48.822;8.796;2024-03-02T00:41:38;7.50;;;5.47;;
47844;SDS011;33605;48.822;8.796;2024-03-02T00:44:07;8.80;;;5.97;;
47844;SDS011;33605;48.822;8.796;2024-03-02T00:46:36;11.50;;;7.40;;
47844;SDS011;33605;48.822;8.796;2024-03-02T00:49:03;9.80;;;7.13;;
47844;SDS011;33605;48.822;8.796;2024-03-02T00:51:30;9.13;;;6.77;;
47844;SDS011;33605;48.822;8.796;2024-03-02T00:54:00;8.33;;;6.70;;
47844;SDS011;33605;48.822;8.796;2024-03-02T00:56:28;8.80;;;6.67;;
47844;SDS011;33605;48.822;8.796;2024-03-02T00:58:55;8.27;;;5.83;;
47844;SDS011;33605;48.822;8.796;2024-03-02T01:01:21;12.13;;;6.43;;
47844;SDS011;33605;48.822;8.796;2024-03-02T01:03:47;7.30;;;6.40;;
47844;SDS011;33605;48.822;8.796;2024-03-02T01:06:14;7.93;;;5.80;;
47844;SDS011;33605;48.822;8.796;2024-03-02T01:08:41;9.17;;;6.83;;
47844;SDS011;33605;48.822;8.796;2024-03-02T01:11:07;9.60;;;6.23;;
47844;SDS011;33605;48.822;8.796;2024-03-02T01:13:33;9.30;;;6.23;;
47844;SDS011;33605;48.822;8.796;2024-03-02T01:15:59;8.20;;;6.57;;
47844;SDS011;33605;48.822;8.796;2024-03-02T01:18:26;8.30;;;6.50;;
47844;SDS011;33605;48.822;8.796;2024-03-02T01:20:52;11.27;;;7.43;;
47844;SDS011;33605;48.822;8.796;2024-03-02T01:23:20;10.53;;;7.63;;
47844;SDS011;33605;48.822;8.796;2024-03-02T01:25:46;8.37;;;6.47;;
47844;SDS011;33605;48.822;8.796;2024-03-02T01:28:13;7.57;;;6.70;;
47844;SDS011;33605;48.822;8.796;2024-03-02T01:30:39;8.70;;;6.50;;
47844;SDS011;33605;48.822;8.796;2024-03-02T01:33:05;9.80;;;7.30;;
47844;SDS011;33605;48.822;8.796;2024-03-02T01:35:31;9.10;;;7.00;;
47844;SDS011;33605;48.822;8.796;2024-03-02T01:37:57;9.60;;;6.97;;
47844;SDS011;33605;48.822;8.796;2024-03-02T01:40:23;11.00;;;7.40;;
47844;SDS011;33605;48.822;8.796;2024-03-02T01:42:53;8.53;;;6.00;;
47844;SDS011;33605;48.822;8.796;2024-03-02T01:45:20;8.77;;;6.53;;
47844;SDS011;33605;48.822;8.796;2024-03-02T01:47:47;9.93;;;7.77;;
47844;SDS011;33605;48.822;8.796;2024-03-02T01:50:13;9.60;;;7.60;;
47844;SDS011;33605;48.822;8.796;2024-03-02T01:52:39;7.77;;;6.60;;
47844;SDS011;33605;48.822;8.796;2024-03-02T01:55:05;10.13;;;7.40;;
47844;SDS011;33605;48.822;8.796;2024-03-02T01:57:32;12.00;;;8.63;;
47844;SDS011;33605;48.822;8.796;2024-03-02T01:59:58;12.13;;;8.77;;
47844;SDS011;33605;48.822;8.796;2024-03-02T02:02:24;11.27;;;7.40;;
47844;SDS011;33605;48.822;8.796;2024-03-02T02:04:50;11.70;;;8.27;;
47844;SDS011;33605;48.822;8.796;2024-03-02T02:07:16;8.60;;;6.93;;
47844;SDS011;33605;48.822;8.796;2024-03-02T02:09:42;8.93;;;7.30;;
47844;SDS011;33605;48.822;8.796;2024-03-02T02:12:11;11.60;;;7.87;;
47844;SDS011;33605;48.822;8.796;2024-03-02T02:14:37;12.00;;;7.50;;
47844;SDS011;33605;48.822;8.796;2024-03-02T02:17:05;10.13;;;7.17;;
47844;SDS011;33605;48.822;8.796;2024-03-02T02:19:31;9.47;;;7.43;;
47844;SDS011;33605;48.822;8.796;2024-03-02T02:21:57;9.97;;;6.87;;
47844;SDS011;33605;48.822;8.796;2024-03-02T02:24:23;8.70;;;6.67;;
47844;SDS011;33605;48.822;8.796;2024-03-02T02:26:49;10.03;;;7.33;;
47844;SDS011;33605;48.822;8.796;2024-03-02T02:29:15;10.50;;;7.40;;
47844;SDS011;33605;48.822;8.796;2024-03-02T02:31:41;11.17;;;7.90;;
47844;SDS011;33605;48.822;8.796;2024-03-02T02:34:07;12.77;;;8.03;;
47844;SDS011;33605;48.822;8.796;2024-03-02T02:36:34;13.30;;;8.47;;
47844;SDS011;33605;48.822;8.796;2024-03-02T02:39:02;14.37;;;9.57;;
47844;SDS011;33605;48.822;8.796;2024-03-02T02:41:29;12.90;;;8.17;;
47844;SDS011;33605;48.822;8.796;2024-03-02T02:43:55;9.80;;;8.00;;
47844;SDS011;33605;48.822;8.796;2024-03-02T02:46:21;11.43;;;8.57;;
47844;SDS011;33605;48.822;8.796;2024-03-02T02:48:47;14.30;;;8.77;;
47844;SDS011;33605;48.822;8.796;2024-03-02T02:51:13;12.90;;;9.70;;
47844;SDS011;33605;48.822;8.796;2024-03-02T02:53:39;14.70;;;9.03;;
47844;SDS011;33605;48.822;8.796;2024-03-02T02:56:06;10.27;;;7.60;;
47844;SDS011;33605;48.822;8.796;2024-03-02T02:58:32;10.00;;;7.37;;
47844;SDS011;33605;48.822;8.796;2024-03-02T03:00:58;10.27;;;6.90;;
47844;SDS011;33605;48.822;8.796;2024-03-02T03:03:24;10.17;;;6.80;;
47844;SDS011;33605;48.822;8.796;2024-03-02T03:05:50;13.47;;;8.47;;
47844;SDS011;33605;48.822;8.796;2024-03-02T03:08:16;12.93;;;8.23;;
47844;SDS011;33605;48.822;8.796;2024-03-02T03:10:42;9.43;;;7.20;;
47844;SDS011;33605;48.822;8.796;2024-03-02T03:13:08;12.80;;;8.70;;
47844;SDS011;33605;48.822;8.796;2024-03-02T03:15:35;13.40;;;9.23;;
47844;SDS011;33605;48.822;8.796;2024-03-02T03:18:04;10.37;;;8.30;;
47844;SDS011;33605;48.822;8.796;2024-03-02T03:20:30;13.73;;;9.23;;
47844;SDS011;33605;48.822;8.796;2024-03-02T03:22:57;13.10;;;9.47;;
47844;SDS011;33605;48.822;8.796;2024-03-02T03:25:23;15.70;;;8.80;;
47844;SDS011;33605;48.822;8.796;2024-03-02T03:27:49;11.27;;;8.07;;
47844;SDS011;33605;48.822;8.796;2024-03-02T03:30:17;10.90;;;8.27;;
47844;SDS011;33605;48.822;8.796;2024-03-02T03:32:43;11.10;;;8.87;;
47844;SDS011;33605;48.822;8.796;2024-03-02T03:35:09;17.13;;;9.90;;
47844;SDS011;33605;48.822;8.796;2024-03-02T03:37:37;13.13;;;8.60;;
47844;SDS011;33605;48.822;8.796;2024-03-02T03:40:03;13.57;;;8.63;;
47844;SDS011;33605;48.822;8.796;2024-03-02T03:42:38;11.60;;;7.70;;
47844;SDS011;33605;48.822;8.796;2024-03-02T03:45:04;13.13;;;8.97;;
47844;SDS011;33605;48.822;8.796;2024-03-02T03:47:31;13.33;;;9.03;;
47844;SDS011;33605;48.822;8.796;2024-03-02T03:49:57;12.80;;;8.63;;
47844;SDS011;33605;48.822;8.796;2024-03-02T03:52:23;11.20;;;8.00;;
47844;SDS011;33605;48.822;8.796;2024-03-02T03:54:49;12.00;;;8.70;;
47844;SDS011;33605;48.822;8.796;2024-03-02T03:57:15;10.80;;;8.27;;
47844;SDS011;33605;48.822;8.796;2024-03-02T03:59:41;13.83;;;9.30;;
47844;SDS011;33605;48.822;8.796;2024-03-02T04:02:07;11.50;;;8.30;;
47844;SDS011;33605;48.822;8.796;2024-03-02T04:04:34;14.87;;;9.20;;
47844;SDS011;33605;48.822;8.796;2024-03-02T04:07:00;12.23;;;9.53;;
47844;SDS011;33605;48.822;8.796;2024-03-02T04:09:26;16.73;;;9.00;;
47844;SDS011;33605;48.822;8.796;2024-03-02T04:11:52;12.77;;;9.37;;
47844;SDS011;33605;48.822;8.796;2024-03-02T04:14:19;15.20;;;9.97;;
47844;SDS011;33605;48.822;8.796;2024-03-02T04:16:45;18.60;;;10.20;;
47844;SDS011;33605;48.822;8.796;2024-03-02T04:19:11;16.20;;;10.00;;
47844;SDS011;33605;48.822;8.796;2024-03-02T04:21:37;13.90;;;9.37;;
47844;SDS011;33605;48.822;8.796;2024-03-02T04:24:03;14.67;;;9.43;;
47844;SDS011;33605;48.822;8.796;2024-03-02T04:26:29;15.50;;;10.10;;
47844;SDS011;33605;48.822;8.796;2024-03-02T04:28:55;12.67;;;9.20;;
47844;SDS011;33605;48.822;8.796;2024-03-02T04:31:21;13.07;;;8.93;;
47844;SDS011;33605;48.822;8.796;2024-03-02T04:33:47;13.20;;;9.47;;
47844;SDS011;33605;48.822;8.796;2024-03-02T04:36:13;12.47;;;9.20;;
47844;SDS011;33605;48.822;8.796;2024-03-02T04:38:39;14.83;;;10.37;;
47844;SDS011;33605;48.822;8.796;2024-03-02T04:41:06;14.17;;;9.87;;
47844;SDS011;33605;48.822;8.796;2024-03-02T04:43:32;16.47;;;11.13;;
47844;SDS011;33605;48.822;8.796;2024-03-02T04:45:59;14.60;;;9.80;;
47844;SDS011;33605;48.822;8.796;2024-03-02T04:48:25;14.63;;;9.73;;
47844;SDS011;33605;48.822;8.796;2024-03-02T04:50:51;14.47;;;9.93;;
47844;SDS011;33605;48.822;8.796;2024-03-02T04:53:17;13.80;;;9.50;;
47844;SDS011;33605;48.822;8.796;2024-03-02T04:55:43;13.20;;;10.00;;
47844;SDS011;33605;48.822;8.796;2024-03-02T04:58:09;13.30;;;9.30;;
47844;SDS011;33605;48.822;8.796;2024-03-02T05:00:35;15.47;;;9.87;;
47844;SDS011;33605;48.822;8.796;2024-03-02T05:03:02;16.73;;;10.70;;
47844;SDS011;33605;48.822;8.796;2024-03-02T05:05:28;15.90;;;10.07;;
47844;SDS011;33605;48.822;8.796;2024-03-02T05:07:54;15.10;;;10.40;;
47844;SDS011;33605;48.822;8.796;2024-03-02T05:10:20;12.60;;;9.30;;
47844;SDS011;33605;48.822;8.796;2024-03-02T05:12:46;20.60;;;10.83;;
47844;SDS011;33605;48.822;8.796;2024-03-02T05:15:22;14.30;;;9.90;;
47844;SDS011;33605;48.822;8.796;2024-03-02T05:17:48;13.73;;;9.37;;
47844;SDS011;33605;48.822;8.796;2024-03-02T05:20:14;16.50;;;10.27;;
47844;SDS011;33605;48.822;8.796;2024-03-02T05:22:40;15.17;;;10.63;;
47844;SDS011;33605;48.822;8.796;2024-03-02T05:25:07;15.93;;;11.20;;
47844;SDS011;33605;48.822;8.796;2024-03-02T05:27:34;16.97;;;10.73;;
47844;SDS011;33605;48.822;8.796;2024-03-02T05:30:00;18.47;;;10.13;;
47844;SDS011;33605;48.822;8.796;2024-03-02T05:32:26;18.40;;;11.83;;
47844;SDS011;33605;48.822;8.796;2024-03-02T05:34:52;15.90;;;9.97;;
47844;SDS011;33605;48.822;8.796;2024-03-02T05:37:18;17.23;;;11.70;;
47844;SDS011;33605;48.822;8.796;2024-03-02T05:39:45;15.03;;;10.10;;
47844;SDS011;33605;48.822;8.796;2024-03-02T05:42:11;14.83;;;10.00;;
47844;SDS011;33605;48.822;8.796;2024-03-02T05:44:37;13.70;;;10.90;;
47844;SDS011;33605;48.822;8.796;2024-03-02T05:47:03;16.10;;;9.93;;
47844;SDS011;33605;48.822;8.796;2024-03-02T05:49:29;16.50;;;10.40;;
47844;SDS011;33605;48.822;8.796;2024-03-02T05:51:55;14.83;;;9.60;;
47844;SDS011;33605;48.822;8.796;2024-03-02T05:54:21;14.83;;;9.30;;
47844;SDS011;33605;48.822;8.796;2024-03-02T05:56:47;13.03;;;9.50;;
47844;SDS011;33605;48.822;8.796;2024-03-02T05:59:13;14.97;;;10.83;;
47844;SDS011;33605;48.822;8.796;2024-03-02T06:01:41;13.00;;;9.30;;
47844;SDS011;33605;48.822;8.796;2024-03-02T06:04:08;15.10;;;10.57;;
47844;SDS011;33605;48.822;8.796;2024-03-02T06:06:34;15.80;;;9.63;;
47844;SDS011;33605;48.822;8.796;2024-03-02T06:09:03;16.03;;;10.40;;
47844;SDS011;33605;48.822;8.796;2024-03-02T06:11:40;15.37;;;9.77;;
47844;SDS011;33605;48.822;8.796;2024-03-02T06:14:07;16.30;;;10.23;;
47844;SDS011;33605;48.822;8.796;2024-03-02T06:16:33;11.27;;;8.90;;
47844;SDS011;33605;48.822;8.796;2024-03-02T06:18:59;14.30;;;9.47;;
47844;SDS011;33605;48.822;8.796;2024-03-02T06:21:26;12.37;;;8.77;;
47844;SDS011;33605;48.822;8.796;2024-03-02T06:23:55;13.90;;;9.57;;
47844;SDS011;33605;48.822;8.796;2024-03-02T06:26:21;13.97;;;9.33;;
47844;SDS011;33605;48.822;8.796;2024-03-02T06:28:47;11.90;;;8.30;;
47844;SDS011;33605;48.822;8.796;2024-03-02T06:31:13;13.50;;;8.63;;
47844;SDS011;33605;48.822;8.796;2024-03-02T06:33:39;10.60;;;8.30;;
47844;SDS011;33605;48.822;8.796;2024-03-02T06:36:06;11.27;;;8.03;;
47844;SDS011;33605;48.822;8.796;2024-03-02T06:38:34;13.87;;;9.43;;
47844;SDS011;33605;48.822;8.796;2024-03-02T06:41:00;14.07;;;9.93;;
47844;SDS011;33605;48.822;8.796;2024-03-02T06:43:26;10.47;;;8.60;;
47844;SDS011;33605;48.822;8.796;2024-03-02T06:45:52;12.50;;;8.00;;
47844;SDS011;33605;48.822;8.796;2024-03-02T06:48:18;13.47;;;9.93;;
47844;SDS011;33605;48.822;8.796;2024-03-02T06:50:49;12.77;;;8.97;;
47844;SDS011;33605;48.822;8.796;2024-03-02T06:53:16;11.03;;;8.50;;
47844;SDS011;33605;48.822;8.796;2024-03-02T06:55:43;12.57;;;9.37;;
47844;SDS011;33605;48.822;8.796;2024-03-02T06:58:12;14.60;;;9.27;;
47844;SDS011;33605;48.822;8.796;2024-03-02T07:00:40;15.43;;;9.83;;
47844;SDS011;33605;48.822;8.796;2024-03-02T07:03:06;12.33;;;8.90;;
47844;SDS011;33605;48.822;8.796;2024-03-02T07:05:31;11.20;;;8.47;;
47844;SDS011;33605;48.822;8.796;2024-03-02T07:07:57;15.20;;;9.50;;
47844;SDS011;33605;48.822;8.796;2024-03-02T07:10:24;11.40;;;8.27;;
47844;SDS011;33605;48.822;8.796;2024-03-02T07:12:50;12.63;;;8.63;;
47844;SDS011;33605;48.822;8.796;2024-03-02T07:15:16;12.87;;;9.10;;
47844;SDS011;33605;48.822;8.796;2024-03-02T07:18:01;15.27;;;9.97;;
47844;SDS011;33605;48.822;8.796;2024-03-02T07:20:30;12.07;;;8.87;;
47844;SDS011;33605;48.822;8.796;2024-03-02T07:22:56;12.17;;;9.10;;
47844;SDS011;33605;48.822;8.796;2024-03-02T07:25:22;12.10;;;8.80;;
47844;SDS011;33605;48.822;8.796;2024-03-02T07:27:48;12.30;;;8.77;;
47844;SDS011;33605;48.822;8.796;2024-03-02T07:30:14;12.97;;;9.50;;
47844;SDS011;33605;48.822;8.796;2024-03-02T07:32:41;14.53;;;9.90;;
47844;SDS011;33605;48.822;8.796;2024-03-02T07:35:10;12.40;;;8.60;;
47844;SDS011;33605;48.822;8.796;2024-03-02T07:37:36;15.30;;;10.13;;
47844;SDS011;33605;48.822;8.796;2024-03-02T07:40:05;11.90;;;8.73;;
47844;SDS011;33605;48.822;8.796;2024-03-02T07:42:34;13.93;;;9.57;;
47844;SDS011;33605;48.822;8.796;2024-03-02T07:45:02;13.37;;;9.30;;
47844;SDS011;33605;48.822;8.796;2024-03-02T07:47:28;13.50;;;10.40;;
47844;SDS011;33605;48.822;8.796;2024-03-02T07:49:54;14.43;;;10.00;;
47844;SDS011;33605;48.822;8.796;2024-03-02T07:52:20;12.00;;;9.27;;
47844;SDS011;33605;48.822;8.796;2024-03-02T07:54:46;12.80;;;8.57;;
47844;SDS011;33605;48.822;8.796;2024-03-02T07:57:13;10.97;;;9.20;;
47844;SDS011;33605;48.822;8.796;2024-03-02T07:59:39;14.53;;;10.23;;
47844;SDS011;33605;48.822;8.796;2024-03-02T08:02:08;12.20;;;9.53;;
47844;SDS011;33605;48.822;8.796;2024-03-02T08:04:34;12.60;;;8.90;;
47844;SDS011;33605;48.822;8.796;2024-03-02T08:07:01;13.93;;;9.33;;
47844;SDS011;33605;48.822;8.796;2024-03-02T08:09:28;12.67;;;8.97;;
47844;SDS011;33605;48.822;8.796;2024-03-02T08:11:53;12.47;;;9.40;;
47844;SDS011;33605;48.822;8.796;2024-03-02T08:14:19;12.43;;;9.33;;
47844;SDS011;33605;48.822;8.796;2024-03-02T08:16:45;15.07;;;10.40;;
47844;SDS011;33605;48.822;8.796;2024-03-02T08:19:11;12.80;;;9.53;;
47844;SDS011;33605;48.822;8.796;2024-03-02T08:21:37;13.30;;;9.93;;
47844;SDS011;33605;48.822;8.796;2024-03-02T08:24:04;11.60;;;9.67;;
47844;SDS011;33605;48.822;8.796;2024-03-02T08:26:30;12.07;;;9.17;;
47844;SDS011;33605;48.822;8.796;2024-03-02T08:28:57;12.83;;;9.60;;
47844;SDS011;33605;48.822;8.796;2024-03-02T08:31:25;13.83;;;9.50;;
47844;SDS011;33605;48.822;8.796;2024-03-02T08:33:51;12.10;;;8.87;;
47844;SDS011;33605;48.822;8.796;2024-03-02T08:36:17;13.53;;;9.97;;
47844;SDS011;33605;48.822;8.796;2024-03-02T08:38:44;11.40;;;8.03;;
47844;SDS011;33605;48.822;8.796;2024-03-02T08:41:10;11.73;;;9.00;;
47844;SDS011;33605;48.822;8.796;2024-03-02T08:43:38;11.90;;;9.17;;
47844;SDS011;33605;48.822;8.796;2024-03-02T08:46:06;11.37;;;8.53;;
47844;SDS011;33605;48.822;8.796;2024-03-02T08:48:32;12.73;;;9.03;;
47844;SDS011;33605;48.822;8.796;2024-03-02T08:50:58;11.53;;;8.17;;
47844;SDS011;33605;48.822;8.796;2024-03-02T08:53:24;10.80;;;8.10;;
47844;SDS011;33605;48.822;8.796;2024-03-02T08:55:52;9.30;;;7.70;;
47844;SDS011;33605;48.822;8.796;2024-03-02T08:58:20;9.40;;;7.67;;
47844;SDS011;33605;48.822;8.796;2024-03-02T09:00:46;11.13;;;9.40;;
47844;SDS011;33605;48.822;8.796;2024-03-02T09:03:12;10.60;;;7.70;;
47844;SDS011;33605;48.822;8.796;2024-03-02T09:05:38;12.10;;;7.87;;
47844;SDS011;33605;48.822;8.796;2024-03-02T09:08:04;8.20;;;6.37;;
47844;SDS011;33605;48.822;8.796;2024-03-02T09:10:31;8.77;;;6.80;;
47844;SDS011;33605;48.822;8.796;2024-03-02T09:12:57;10.07;;;7.83;;
47844;SDS011;33605;48.822;8.796;2024-03-02T09:15:23;10.80;;;8.00;;
47844;SDS011;33605;48.822;8.796;2024-03-02T09:17:49;10.93;;;8.87;;
47844;SDS011;33605;48.822;8.796;2024-03-02T09:20:15;9.80;;;7.57;;
47844;SDS011;33605;48.822;8.796;2024-03-02T09:22:42;8.80;;;7.17;;
47844;SDS011;33605;48.822;8.796;2024-03-02T09:25:08;9.80;;;7.37;;
47844;SDS011;33605;48.822;8.796;2024-03-02T09:27:40;10.23;;;7.13;;
47844;SDS011;33605;48.822;8.796;2024-03-02T09:30:09;11.47;;;7.20;;
47844;SDS011;33605;48.822;8.796;2024-03-02T09:32:36;7.33;;;6.30;;
47844;SDS011;33605;48.822;8.796;2024-03-02T09:35:02;9.90;;;7.20;;
47844;SDS011;33605;48.822;8.796;2024-03-02T09:37:28;8.17;;;6.80;;
47844;SDS011;33605;48.822;8.796;2024-03-02T09:39:54;7.60;;;5.63;;
47844;SDS011;33605;48.822;8.796;2024-03-02T09:42:20;6.33;;;5.70;;
47844;SDS011;33605;48.822;8.796;2024-03-02T09:44:47;7.60;;;6.20;;
47844;SDS011;33605;48.822;8.796;2024-03-02T09:47:13;8.50;;;6.77;;
47844;SDS011;33605;48.822;8.796;2024-03-02T09:49:39;6.63;;;5.63;;
47844;SDS011;33605;48.822;8.796;2024-03-02T09:52:05;8.13;;;5.97;;
47844;SDS011;33605;48.822;8.796;2024-03-02T09:54:32;6.50;;;5.60;;
47844;SDS011;33605;48.822;8.796;2024-03-02T09:56:58;7.90;;;5.60;;
47844;SDS011;33605;48.822;8.796;2024-03-02T09:59:26;6.03;;;4.70;;
47844;SDS011;33605;48.822;8.796;2024-03-02T10:01:59;5.40;;;4.70;;
47844;SDS011;33605;48.822;8.796;2024-03-02T10:04:26;5.10;;;4.33;;
47844;SDS011;33605;48.822;8.796;2024-03-02T10:07:08;6.90;;;4.27;;
47844;SDS011;33605;48.822;8.796;2024-03-02T10:09:36;8.40;;;4.80;;
47844;SDS011;33605;48.822;8.796;2024-03-02T10:12:06;5.57;;;4.37;;
47844;SDS011;33605;48.822;8.796;2024-03-02T10:14:32;4.77;;;4.00;;
47844;SDS011;33605;48.822;8.796;2024-03-02T10:17:05;4.40;;;3.50;;
47844;SDS011;33605;48.822;8.796;2024-03-02T10:19:31;4.40;;;3.40;;
47844;SDS011;33605;48.822;8.796;2024-03-02T10:21:59;6.23;;;4.17;;
47844;SDS011;33605;48.822;8.796;2024-03-02T10:24:25;13.43;;;3.87;;
47844;SDS011;33605;48.822;8.796;2024-03-02T10:26:52;3.63;;;3.30;;
47844;SDS011;33605;48.822;8.796;2024-03-02T10:29:18;4.43;;;3.60;;
47844;SDS011;33605;48.822;8.796;2024-03-02T10:31:45;4.10;;;3.27;;
47844;SDS011;33605;48.822;8.796;2024-03-02T10:34:11;4.43;;;3.47;;
47844;SDS011;33605;48.822;8.796;2024-03-02T10:36:40;3.63;;;3.20;;
47844;SDS011;33605;48.822;8.796;2024-03-02T10:39:08;3.43;;;3.13;;
47844;SDS011;33605;48.822;8.796;2024-03-02T10:41:34;5.93;;;2.53;;
47844;SDS011;33605;48.822;8.796;2024-03-02T10:44:13;6.43;;;4.23;;
47844;SDS011;33605;48.822;8.796;2024-03-02T10:46:39;6.47;;;5.00;;
47844;SDS011;33605;48.822;8.796;2024-03-02T10:49:05;6.00;;;4.50;;
47844;SDS011;33605;48.822;8.796;2024-03-02T10:51:32;5.30;;;4.40;;
47844;SDS011;33605;48.822;8.796;2024-03-02T10:53:58;7.33;;;5.00;;
47844;SDS011;33605;48.822;8.796;2024-03-02T10:56:33;4.90;;;4.40;;
47844;SDS011;33605;48.822;8.796;2024-03-02T10:59:03;4.23;;;3.70;;
47844;SDS011;33605;48.822;8.796;2024-03-02T11:01:29;4.60;;;3.80;;
47844;SDS011;33605;48.822;8.796;2024-03-02T11:03:57;2.13;;;1.87;;
47844;SDS011;33605;48.822;8.796;2024-03-02T11:06:24;1.67;;;1.43;;
47844;SDS011;33605;48.822;8.796;2024-03-02T11:08:53;1.77;;;1.53;;
47844;SDS011;33605;48.822;8.796;2024-03-02T11:11:25;1.17;;;1.07;;
47844;SDS011;33605;48.822;8.796;2024-03-02T11:13:54;2.37;;;1.70;;
47844;SDS011;33605;48.822;8.796;2024-03-02T11:16:34;2.40;;;2.20;;
47844;SDS011;33605;48.822;8.796;2024-03-02T11:19:02;2.40;;;2.20;;
47844;SDS011;33605;48.822;8.796;2024-03-02T11:21:29;3.50;;;2.50;;
47844;SDS011;33605;48.822;8.796;2024-03-02T11:23:57;2.57;;;2.10;;
47844;SDS011;33605;48.822;8.796;2024-03-02T11:26:23;8.07;;;2.37;;
47844;SDS011;33605;48.822;8.796;2024-03-02T11:28:49;3.17;;;2.70;;
47844;SDS011;33605;48.822;8.796;2024-03-02T11:31:15;3.03;;;2.63;;
47844;SDS011;33605;48.822;8.796;2024-03-02T11:33:41;3.13;;;2.47;;
47844;SDS011;33605;48.822;8.796;2024-03-02T11:36:08;2.50;;;2.30;;
47844;SDS011;33605;48.822;8.796;2024-03-02T11:38:35;2.23;;;2.03;;
47844;SDS011;33605;48.822;8.796;2024-03-02T11:41:02;2.20;;;2.00;;
47844;SDS011;33605;48.822;8.796;2024-03-02T11:43:28;5.53;;;2.70;;
47844;SDS011;33605;48.822;8.796;2024-03-02T11:46:01;2.97;;;2.60;;
47844;SDS011;33605;48.822;8.796;2024-03-02T11:48:31;2.43;;;2.23;;
47844;SDS011;33605;48.822;8.796;2024-03-02T11:50:58;2.53;;;2.30;;
47844;SDS011;33605;48.822;8.796;2024-03-02T11:53:24;2.40;;;1.80;;
47844;SDS011;33605;48.822;8.796;2024-03-02T11:55:52;2.60;;;2.40;;
47844;SDS011;33605;48.822;8.796;2024-03-02T11:58:20;2.90;;;2.50;;
47844;SDS011;33605;48.822;8.796;2024-03-02T12:00:52;2.67;;;2.43;;
47844;SDS011;33605;48.822;8.796;2024-03-02T12:03:18;2.27;;;2.07;;
47844;SDS011;33605;48.822;8.796;2024-03-02T12:05:48;2.80;;;2.30;;
47844;SDS011;33605;48.822;8.796;2024-03-02T12:08:14;2.13;;;1.93;;
47844;SDS011;33605;48.822;8.796;2024-03-02T12:10:40;2.20;;;2.00;;
47844;SDS011;33605;48.822;8.796;2024-03-02T12:13:06;2.93;;;1.87;;
47844;SDS011;33605;48.822;8.796;2024-03-02T12:15:36;7.47;;;2.17;;
47844;SDS011;33605;48.822;8.796;2024-03-02T12:18:02;1.90;;;1.70;;
47844;SDS011;33605;48.822;8.796;2024-03-02T12:20:29;1.60;;;1.50;;
47844;SDS011;33605;48.822;8.796;2024-03-02T12:22:55;1.70;;;1.60;;
47844;SDS011;33605;48.822;8.796;2024-03-02T12:25:23;1.70;;;1.50;;
47844;SDS011;33605;48.822;8.796;2024-03-02T12:27:50;1.40;;;1.30;;
47844;SDS011;33605;48.822;8.796;2024-03-02T12:30:17;1.53;;;1.40;;
47844;SDS011;33605;48.822;8.796;2024-03-02T12:32:44;1.53;;;1.23;;
47844;SDS011;33605;48.822;8.796;2024-03-02T12:35:10;1.47;;;1.30;;
47844;SDS011;33605;48.822;8.796;2024-03-02T12:37:45;1.60;;;1.50;;
47844;SDS011;33605;48.822;8.796;2024-03-02T12:40:12;1.40;;;1.30;;
47844;SDS011;33605;48.822;8.796;2024-03-02T12:42:41;1.63;;;1.53;;
47844;SDS011;33605;48.822;8.796;2024-03-02T12:45:07;1.60;;;1.50;;
47844;SDS011;33605;48.822;8.796;2024-03-02T12:47:34;1.80;;;1.70;;
47844;SDS011;33605;48.822;8.796;2024-03-02T12:50:00;1.40;;;1.30;;
47844;SDS011;33605;48.822;8.796;2024-03-02T12:52:26;1.27;;;1.17;;
47844;SDS011;33605;48.822;8.796;2024-03-02T12:54:52;1.63;;;1.20;;
47844;SDS011;33605;48.822;8.796;2024-03-02T12:57:24;2.80;;;1.50;;
47844;SDS011;33605;48.822;8.796;2024-03-02T12:59:51;1.30;;;1.20;;
47844;SDS011;33605;48.822;8.796;2024-03-02T13:02:17;1.77;;;1.67;;
47844;SDS011;33605;48.822;8.796;2024-03-02T13:04:43;1.33;;;1.23;;
47844;SDS011;33605;48.822;8.796;2024-03-02T13:07:10;1.60;;;1.50;;
47844;SDS011;33605;48.822;8.796;2024-03-02T13:09:39;1.50;;;1.40;;
47844;SDS011;33605;48.822;8.796;2024-03-02T13:12:05;1.70;;;1.30;;
47844;SDS011;33605;48.822;8.796;2024-03-02T13:14:35;1.37;;;1.27;;
47844;SDS011;33605;48.822;8.796;2024-03-02T13:17:01;1.43;;;1.33;;
47844;SDS011;33605;48.822;8.796;2024-03-02T13:19:30;1.50;;;1.40;;
47844;SDS011;33605;48.822;8.796;2024-03-02T13:21:57;1.80;;;1.70;;
47844;SDS011;33605;48.822;8.796;2024-03-02T13:24:23;1.60;;;1.43;;
47844;SDS011;33605;48.822;8.796;2024-03-02T13:26:53;1.67;;;1.57;;
47844;SDS011;33605;48.822;8.796;2024-03-02T13:29:21;1.53;;;1.40;;
47844;SDS011;33605;48.822;8.796;2024-03-02T13:31:47;1.40;;;1.30;;
47844;SDS011;33605;48.822;8.796;2024-03-02T13:34:13;2.23;;;1.80;;
47844;SDS011;33605;48.822;8.796;2024-03-02T13:36:39;1.70;;;1.60;;
47844;SDS011;33605;48.822;8.796;2024-03-02T13:39:06;1.50;;;1.40;;
47844;SDS011;33605;48.822;8.796;2024-03-02T13:41:35;1.60;;;1.50;;
47844;SDS011;33605;48.822;8.796;2024-03-02T13:44:01;1.60;;;1.47;;
47844;SDS011;33605;48.822;8.796;2024-03-02T13:46:27;1.50;;;1.40;;
47844;SDS011;33605;48.822;8.796;2024-03-02T13:48:53;1.73;;;1.63;;
47844;SDS011;33605;48.822;8.796;2024-03-02T13:51:20;1.90;;;1.73;;
47844;SDS011;33605;48.822;8.796;2024-03-02T13:53:46;2.90;;;1.50;;
47844;SDS011;33605;48.822;8.796;2024-03-02T13:56:12;1.90;;;1.80;;
47844;SDS011;33605;48.822;8.796;2024-03-02T13:58:38;1.57;;;1.47;;
47844;SDS011;33605;48.822;8.796;2024-03-02T14:01:04;1.87;;;1.50;;
47844;SDS011;33605;48.822;8.796;2024-03-02T14:03:31;1.47;;;1.37;;
47844;SDS011;33605;48.822;8.796;2024-03-02T14:05:57;2.00;;;1.80;;
47844;SDS011;33605;48.822;8.796;2024-03-02T14:08:23;2.70;;;1.50;;
47844;SDS011;33605;48.822;8.796;2024-03-02T14:10:49;1.70;;;1.60;;
47844;SDS011;33605;48.822;8.796;2024-03-02T14:13:15;1.70;;;1.60;;
47844;SDS011;33605;48.822;8.796;2024-03-02T14:15:41;1.70;;;1.60;;
47844;SDS011;33605;48.822;8.796;2024-03-02T14:18:07;1.77;;;1.67;;
47844;SDS011;33605;48.822;8.796;2024-03-02T14:20:36;1.60;;;1.50;;
47844;SDS011;33605;48.822;8.796;2024-03-02T14:23:03;2.00;;;1.87;;
47844;SDS011;33605;48.822;8.796;2024-03-02T14:25:29;1.97;;;1.70;;
47844;SDS011;33605;48.822;8.796;2024-03-02T14:27:58;1.83;;;1.73;;
47844;SDS011;33605;48.822;8.796;2024-03-02T14:30:24;1.73;;;1.63;;
47844;SDS011;33605;48.822;8.796;2024-03-02T14:32:50;1.70;;;1.60;;
47844;SDS011;33605;48.822;8.796;2024-03-02T14:35:16;1.80;;;1.50;;
47844;SDS011;33605;48.822;8.796;2024-03-02T14:37:42;1.97;;;1.77;;
47844;SDS011;33605;48.822;8.796;2024-03-02T14:40:08;2.27;;;2.07;;
47844;SDS011;33605;48.822;8.796;2024-03-02T14:42:36;1.90;;;1.63;;